Time;durP1;ratioP1;P1;durP2;ratioP2;P2;SDS_P1;SDS_P2;PMS_P1;PMS_P2;Temp;Humidity;BMP_temperature;BMP_pressure;BME280_temperature;BME280_humidity;BME280_pressure;Samples;Min_cycle;Max_cycle;Signal;HPM_P1;HPM_P2
2022/10/12 00:01:29;;;;;;;20.17;16.77;;;15.60;48.40;;;;;;5049182;28;20227;-59
2022/10/12 00:03:55;;;;;;;17.27;15.77;;;15.60;48.40;;;;;;5050790;28;20313;-59
2022/10/12 00:06:22;;;;;;;17.20;15.60;;;15.50;48.40;;;;;;5048477;28;20256;-59
2022/10/12 00:08:50;;;;;;;18.70;16.93;;;15.50;48.20;;;;;;5050548;28;20322;-59
2022/10/12 00:11:19;;;;;;;18.43;16.93;;;15.50;48.00;;;;;;5047332;28;20463;-58
2022/10/12 00:13:46;;;;;;;17.63;16.10;;;15.40;47.80;;;;;;5050406;28;20468;-59
2022/10/12 00:16:13;;;;;;;17.47;15.93;;;15.40;48.00;;;;;;5048590;28;20634;-59
2022/10/12 00:18:39;;;;;;;19.00;17.10;;;15.40;48.40;;;;;;5050017;28;21053;-58
2022/10/12 00:21:08;;;;;;;17.80;16.30;;;15.40;48.50;;;;;;5049274;28;20457;-59
2022/10/12 00:23:35;;;;;;;17.53;16.03;;;15.40;48.20;;;;;;5050524;28;20276;-59
2022/10/12 00:26:10;;;;;;;17.17;15.97;;;15.40;48.50;;;;;;5049749;28;20449;-58
2022/10/12 00:28:36;;;;;;;17.27;16.07;;;15.40;48.40;;;;;;5047427;28;20906;-58
2022/10/12 00:31:07;;;;;;;18.47;17.10;;;15.40;48.20;;;;;;5047254;28;20943;-58
2022/10/12 00:33:33;;;;;;;17.33;16.03;;;15.30;48.20;;;;;;5050835;28;20230;-58
2022/10/12 00:35:58;;;;;;;18.30;16.90;;;15.40;48.10;;;;;;5046897;28;20452;-59
2022/10/12 00:38:24;;;;;;;18.70;16.97;;;15.40;48.00;;;;;;5049030;28;20226;-58
2022/10/12 00:40:49;;;;;;;18.67;16.97;;;15.40;48.00;;;;;;5048407;28;20238;-58
2022/10/12 00:43:38;;;;;;;17.80;16.40;;;15.30;47.80;;;;;;5049428;28;20230;-58
2022/10/12 00:46:18;;;;;;;17.87;16.27;;;15.20;48.40;;;;;;5047939;28;20232;-58
2022/10/12 00:48:47;;;;;;;19.43;17.70;;;15.20;48.40;;;;;;5046460;28;20448;-58
2022/10/12 00:51:13;;;;;;;18.43;16.97;;;15.30;48.60;;;;;;5049483;28;20452;-58
2022/10/12 00:53:47;;;;;;;18.67;16.90;;;15.20;48.20;;;;;;5048981;28;20487;-58
2022/10/12 00:56:19;;;;;;;18.63;16.90;;;15.20;48.50;;;;;;5048609;28;20456;-58
2022/10/12 00:58:47;;;;;;;17.40;16.00;;;15.20;48.20;;;;;;5047671;28;20909;-58
2022/10/12 01:01:13;;;;;;;18.13;16.63;;;15.00;48.80;;;;;;5048498;28;20902;-58
2022/10/12 01:03:39;;;;;;;17.43;15.93;;;14.90;50.30;;;;;;5047380;28;20535;-58
2022/10/12 01:06:06;;;;;;;17.20;15.63;;;15.00;50.10;;;;;;5047438;28;20476;-58
2022/10/12 01:08:33;;;;;;;19.00;17.50;;;15.00;50.00;;;;;;5045752;28;20889;-58
2022/10/12 01:10:58;;;;;;;18.00;16.40;;;15.00;49.80;;;;;;5046735;28;20452;-58
2022/10/12 01:13:24;;;;;;;20.20;18.50;;;15.00;49.70;;;;;;5045506;28;20457;-59
2022/10/12 01:16:06;;;;;;;19.40;17.67;;;15.10;49.60;;;;;;5046239;28;20606;-58
2022/10/12 01:18:52;;;;;;;20.20;18.50;;;15.10;49.20;;;;;;5047364;28;20530;-58
2022/10/12 01:21:22;;;;;;;16.83;15.43;;;15.10;48.90;;;;;;5047581;28;20544;-58
2022/10/12 01:24:06;;;;;;;19.13;16.90;;;15.10;49.60;;;;;;5044594;28;20929;-58
2022/10/12 01:26:41;;;;;;;18.80;17.37;;;15.10;48.80;;;;;;5046157;28;20480;-59
2022/10/12 01:29:44;;;;;;;18.10;16.73;;;15.10;48.80;;;;;;5066954;28;20874;-58
2022/10/12 01:32:21;;;;;;;18.53;16.87;;;15.10;48.80;;;;;;5045796;28;20979;-59
2022/10/12 01:34:56;;;;;;;18.67;17.10;;;15.10;49.30;;;;;;5047718;28;20868;-58
2022/10/12 01:37:47;;;;;;;18.37;16.67;;;15.20;48.60;;;;;;5046684;28;21089;-58
2022/10/12 01:40:25;;;;;;;18.67;17.07;;;15.20;47.80;;;;;;5046536;28;20472;-58
2022/10/12 01:42:54;;;;;;;18.97;17.40;;;14.90;48.80;;;;;;5049698;28;20857;-58
2022/10/12 01:45:20;;;;;;;19.00;17.60;;;14.80;49.90;;;;;;5043175;28;20440;-59
2022/10/12 01:47:51;;;;;;;16.70;15.60;;;14.90;49.80;;;;;;5048017;28;20796;-58
2022/10/12 01:50:20;;;;;;;17.53;16.23;;;14.90;49.70;;;;;;5045353;28;20329;-58
2022/10/12 01:52:52;;;;;;;18.40;16.50;;;14.90;49.40;;;;;;5031661;28;20518;-58
2022/10/12 01:55:26;;;;;;;17.80;16.10;;;15.00;49.20;;;;;;5024493;28;20498;-58
2022/10/12 01:58:26;;;;;;;18.50;16.63;;;15.00;48.90;;;;;;5027668;28;20476;-57
2022/10/12 02:01:06;;;;;;;18.43;17.03;;;15.00;48.70;;;;;;5023456;28;20973;-60
2022/10/12 02:03:40;;;;;;;19.27;17.37;;;15.00;48.40;;;;;;5044099;28;20449;-58
2022/10/12 02:06:10;;;;;;;18.60;17.00;;;15.00;48.20;;;;;;5024569;28;20936;-58
2022/10/12 02:09:06;;;;;;;18.77;17.20;;;15.00;48.60;;;;;;5026180;28;20871;-58
2022/10/12 02:11:36;;;;;;;18.77;17.10;;;15.00;48.70;;;;;;4979692;28;20481;-58
2022/10/12 02:14:10;;;;;;;18.83;16.93;;;15.00;48.20;;;;;;5024126;28;20456;-58
2022/10/12 02:16:41;;;;;;;18.37;16.97;;;15.00;48.30;;;;;;5027041;28;20961;-58
2022/10/12 02:19:10;;;;;;;18.40;16.97;;;15.00;48.60;;;;;;5023005;28;20457;-58
2022/10/12 02:21:37;;;;;;;19.10;17.40;;;15.00;48.10;;;;;;5024522;28;21042;-58
2022/10/12 02:24:08;;;;;;;18.33;16.83;;;14.80;47.90;;;;;;5024024;28;20457;-58
2022/10/12 02:26:37;;;;;;;20.17;16.77;;;14.40;49.30;;;;;;5026678;28;20504;-58
2022/10/12 02:29:07;;;;;;;19.47;17.47;;;14.20;50.40;;;;;;5024699;28;20457;-58
2022/10/12 02:31:55;;;;;;;23.83;21.93;;;14.20;51.20;;;;;;5026667;28;20449;-58
2022/10/12 02:34:56;;;;;;;20.70;19.00;;;14.20;51.50;;;;;;5024580;28;20594;-59
2022/10/12 02:37:39;;;;;;;22.73;20.90;;;14.30;51.00;;;;;;5027806;28;20678;-58
2022/10/12 02:40:10;;;;;;;23.40;21.90;;;14.50;50.60;;;;;;5023384;28;20538;-58
2022/10/12 02:42:40;;;;;;;22.53;20.53;;;14.50;50.00;;;;;;5024417;28;20445;-59
2022/10/12 02:45:09;;;;;;;21.83;19.77;;;14.60;49.60;;;;;;5042349;28;20904;-59
2022/10/12 02:47:36;;;;;;;22.90;21.37;;;14.60;49.30;;;;;;5026691;28;20905;-59
2022/10/12 02:50:03;;;;;;;21.47;19.20;;;14.60;48.70;;;;;;5023297;28;20461;-59
2022/10/12 02:52:31;;;;;;;19.33;17.83;;;14.60;48.10;;;;;;5024948;28;20453;-59
2022/10/12 02:54:57;;;;;;;20.13;18.40;;;14.60;48.50;;;;;;5024653;28;20492;-58
2022/10/12 02:57:22;;;;;;;19.43;17.83;;;14.70;48.40;;;;;;5028118;28;20441;-59
2022/10/12 02:59:48;;;;;;;20.80;18.60;;;14.70;48.40;;;;;;5023960;28;20857;-59
2022/10/12 03:02:14;;;;;;;21.07;19.27;;;14.70;48.40;;;;;;5025505;28;20630;-58
2022/10/12 03:04:39;;;;;;;20.80;19.00;;;14.50;48.80;;;;;;5023519;28;20231;-58
2022/10/12 03:07:05;;;;;;;19.90;18.20;;;14.20;49.70;;;;;;5045687;28;20223;-58
2022/10/12 03:09:31;;;;;;;21.97;20.17;;;14.00;51.10;;;;;;5024560;28;20692;-59
2022/10/12 03:11:56;;;;;;;25.33;23.63;;;13.90;51.70;;;;;;5027407;28;20719;-59
2022/10/12 03:14:22;;;;;;;22.93;20.87;;;13.70;52.40;;;;;;5028260;28;20287;-58
2022/10/12 03:16:48;;;;;;;26.17;24.00;;;13.70;52.90;;;;;;5025647;28;20640;-58
2022/10/12 03:19:14;;;;;;;25.47;23.47;;;13.70;53.20;;;;;;5029319;28;20658;-59
2022/10/12 03:21:40;;;;;;;26.30;23.73;;;13.70;53.40;;;;;;5026884;28;20457;-58
2022/10/12 03:24:06;;;;;;;24.50;22.57;;;13.70;53.70;;;;;;5029015;28;20468;-58
2022/10/12 03:26:32;;;;;;;27.23;24.90;;;13.80;54.00;;;;;;5028533;28;21117;-59
2022/10/12 03:28:58;;;;;;;24.70;22.83;;;13.80;53.50;;;;;;5035333;28;20453;-59
2022/10/12 03:31:23;;;;;;;23.60;21.73;;;14.00;53.70;;;;;;5032578;28;20452;-59
2022/10/12 03:33:49;;;;;;;24.10;22.20;;;14.10;52.80;;;;;;5032805;28;20254;-58
2022/10/12 03:36:14;;;;;;;23.53;21.93;;;14.20;52.50;;;;;;5014750;28;20969;-59
2022/10/12 03:38:40;;;;;;;23.57;21.77;;;14.20;51.90;;;;;;5037287;28;20243;-59
2022/10/12 03:41:06;;;;;;;23.80;21.90;;;14.30;51.60;;;;;;5033787;28;20227;-59
2022/10/12 03:43:31;;;;;;;25.60;23.67;;;14.30;51.30;;;;;;5037676;28;20242;-58
2022/10/12 03:45:57;;;;;;;24.17;21.77;;;14.40;51.40;;;;;;5039318;28;20219;-58
2022/10/12 03:48:23;;;;;;;20.03;18.30;;;14.40;51.40;;;;;;5036548;28;20227;-58
2022/10/12 03:50:50;;;;;;;21.13;18.90;;;14.50;50.80;;;;;;5038450;28;20569;-58
2022/10/12 03:53:16;;;;;;;19.40;17.80;;;14.60;50.00;;;;;;5038380;28;20322;-59
2022/10/12 03:55:41;;;;;;;19.50;17.87;;;14.60;50.50;;;;;;5039431;28;20461;-59
2022/10/12 03:58:07;;;;;;;21.33;18.90;;;14.60;50.40;;;;;;5037197;28;20491;-58
2022/10/12 04:00:33;;;;;;;20.20;18.43;;;14.70;50.20;;;;;;5039976;28;20223;-59
2022/10/12 04:02:58;;;;;;;19.17;17.67;;;14.70;49.70;;;;;;5038661;28;20223;-59
2022/10/12 04:05:24;;;;;;;19.10;17.47;;;14.80;49.40;;;;;;5037501;28;20227;-59
2022/10/12 04:07:50;;;;;;;19.77;18.33;;;14.80;49.10;;;;;;5039227;28;20587;-58
2022/10/12 04:10:16;;;;;;;18.63;17.20;;;14.80;48.90;;;;;;5037016;28;20276;-58
2022/10/12 04:12:41;;;;;;;20.77;19.07;;;14.90;48.80;;;;;;5039454;28;20269;-58
2022/10/12 04:15:08;;;;;;;20.37;18.70;;;14.90;48.60;;;;;;5034685;28;20613;-58
2022/10/12 04:17:34;;;;;;;22.37;20.13;;;14.90;48.60;;;;;;5040120;28;20573;-58
2022/10/12 04:20:00;;;;;;;20.47;18.67;;;14.90;48.70;;;;;;5036591;28;20481;-57
2022/10/12 04:22:25;;;;;;;20.70;19.00;;;14.80;48.70;;;;;;5037256;28;20319;-59
2022/10/12 04:24:51;;;;;;;21.33;19.13;;;14.80;48.80;;;;;;5053469;28;20234;-59
2022/10/12 04:27:17;;;;;;;19.90;18.20;;;14.80;48.70;;;;;;5038703;28;20508;-60
2022/10/12 04:29:43;;;;;;;20.37;18.77;;;14.90;48.80;;;;;;5035968;28;20231;-59
2022/10/12 04:32:08;;;;;;;20.23;18.53;;;14.90;48.80;;;;;;5037912;28;20620;-59
2022/10/12 04:34:37;;;;;;;22.60;18.10;;;14.90;48.70;;;;;;5037621;28;20313;-59
2022/10/12 04:37:02;;;;;;;18.93;17.33;;;14.80;48.50;;;;;;5037104;28;20268;-59
2022/10/12 04:39:28;;;;;;;19.30;17.77;;;14.80;48.60;;;;;;5037402;28;20441;-59
2022/10/12 04:41:54;;;;;;;19.30;17.83;;;14.80;48.70;;;;;;5035001;28;20238;-58
2022/10/12 04:44:20;;;;;;;18.70;17.30;;;14.90;48.90;;;;;;5037766;28;20957;-61
2022/10/12 04:46:46;;;;;;;20.17;18.30;;;14.90;49.20;;;;;;5036433;28;20244;-59
2022/10/12 04:49:12;;;;;;;19.13;17.40;;;14.90;49.10;;;;;;5037162;28;20838;-59
2022/10/12 04:51:37;;;;;;;19.63;17.93;;;14.90;49.20;;;;;;5045865;28;20286;-58
2022/10/12 04:54:04;;;;;;;18.60;17.10;;;14.80;49.50;;;;;;5030056;28;20888;-58
2022/10/12 04:56:30;;;;;;;18.47;17.07;;;14.80;49.90;;;;;;5037587;28;20602;-59
2022/10/12 04:58:55;;;;;;;19.67;18.07;;;14.90;50.00;;;;;;5020956;28;20470;-59
2022/10/12 05:01:21;;;;;;;18.67;17.10;;;14.90;50.10;;;;;;5031058;28;20236;-59
2022/10/12 05:03:46;;;;;;;18.20;16.53;;;14.90;49.90;;;;;;5036624;28;20239;-59
2022/10/12 05:06:12;;;;;;;19.67;17.87;;;14.90;49.70;;;;;;5037427;28;20223;-59
2022/10/12 05:08:38;;;;;;;19.70;18.20;;;14.90;49.40;;;;;;5036418;28;20246;-58
2022/10/12 05:11:04;;;;;;;19.73;18.03;;;14.90;49.80;;;;;;5023523;28;20239;-58
2022/10/12 05:13:30;;;;;;;20.57;18.13;;;14.90;49.90;;;;;;5032179;28;20239;-58
2022/10/12 05:15:55;;;;;;;20.47;19.03;;;14.90;49.60;;;;;;5043844;28;20746;-59
2022/10/12 05:18:21;;;;;;;19.33;17.73;;;14.90;49.80;;;;;;5037448;28;20228;-59
2022/10/12 05:20:46;;;;;;;21.63;19.83;;;15.00;49.90;;;;;;5035817;28;20723;-58
2022/10/12 05:23:12;;;;;;;21.00;19.53;;;15.00;49.70;;;;;;5036167;28;20243;-59
2022/10/12 05:25:38;;;;;;;21.20;19.03;;;15.00;49.60;;;;;;5034636;28;20460;-58
2022/10/12 05:28:04;;;;;;;20.00;18.00;;;14.90;49.70;;;;;;5034840;28;20289;-59
2022/10/12 05:30:29;;;;;;;19.07;17.43;;;15.00;49.80;;;;;;5033005;28;20235;-58
2022/10/12 05:32:55;;;;;;;21.13;19.40;;;14.90;49.70;;;;;;5036696;28;20254;-59
2022/10/12 05:35:21;;;;;;;20.80;19.20;;;14.90;49.80;;;;;;5033093;28;20232;-59
2022/10/12 05:37:46;;;;;;;19.67;18.20;;;14.90;49.90;;;;;;5033145;28;20325;-59
2022/10/12 05:40:12;;;;;;;20.33;18.73;;;15.00;49.80;;;;;;5041307;28;20231;-59
2022/10/12 05:42:38;;;;;;;24.40;17.87;;;15.00;49.40;;;;;;5047271;28;20544;-58
2022/10/12 05:45:04;;;;;;;18.90;17.10;;;15.00;49.70;;;;;;5044689;28;20423;-58
2022/10/12 05:47:30;;;;;;;20.67;18.10;;;15.00;49.40;;;;;;5043252;28;20183;-58
2022/10/12 05:49:55;;;;;;;20.60;18.40;;;14.90;49.70;;;;;;5044776;28;20787;-59
2022/10/12 05:52:21;;;;;;;21.30;19.37;;;15.00;50.00;;;;;;5032301;28;20561;-58
2022/10/12 05:54:47;;;;;;;19.07;17.50;;;15.00;49.90;;;;;;5026176;28;20211;-58
2022/10/12 05:57:14;;;;;;;21.30;18.47;;;15.00;50.00;;;;;;5027493;28;20192;-58
2022/10/12 05:59:42;;;;;;;18.67;17.17;;;15.00;50.00;;;;;;5024188;28;20185;-59
2022/10/12 06:02:12;;;;;;;21.53;19.83;;;15.10;50.10;;;;;;5025573;28;20537;-59
2022/10/12 06:04:38;;;;;;;21.00;19.20;;;15.00;50.00;;;;;;5026070;28;20404;-60
2022/10/12 06:07:04;;;;;;;19.80;17.93;;;15.10;50.30;;;;;;5024223;28;20755;-63
2022/10/12 06:09:29;;;;;;;21.53;19.57;;;15.10;49.90;;;;;;5027549;28;20174;-69
2022/10/12 06:11:55;;;;;;;21.37;19.37;;;15.00;50.40;;;;;;5023476;28;20187;-64
2022/10/12 06:14:21;;;;;;;21.33;19.67;;;14.80;50.50;;;;;;5025193;28;20193;-65
2022/10/12 06:16:46;;;;;;;19.60;18.20;;;14.80;51.60;;;;;;5025838;28;20182;-66
2022/10/12 06:19:12;;;;;;;18.63;17.23;;;14.90;52.00;;;;;;5026140;28;20192;-66
2022/10/12 06:21:38;;;;;;;19.77;17.77;;;14.90;51.50;;;;;;5023850;28;20672;-66
2022/10/12 06:24:04;;;;;;;21.13;19.33;;;15.00;51.00;;;;;;5024106;28;20177;-66
2022/10/12 06:26:29;;;;;;;22.57;20.67;;;15.00;50.40;;;;;;5022290;28;20176;-66
2022/10/12 06:28:55;;;;;;;21.33;19.10;;;15.00;50.40;;;;;;5024798;28;20175;-66
2022/10/12 06:31:21;;;;;;;19.00;17.50;;;15.10;50.40;;;;;;5028201;28;20184;-66
2022/10/12 06:33:49;;;;;;;20.77;18.90;;;15.10;50.20;;;;;;5027233;28;20543;-66
2022/10/12 06:36:14;;;;;;;21.40;19.20;;;15.10;50.50;;;;;;5026095;28;20208;-66
2022/10/12 06:38:40;;;;;;;20.60;18.90;;;15.20;50.10;;;;;;5025614;28;20442;-66
2022/10/12 06:41:05;;;;;;;21.77;19.73;;;15.20;50.00;;;;;;5025984;28;20299;-66
2022/10/12 06:43:31;;;;;;;20.20;18.50;;;15.20;49.90;;;;;;5025374;28;20186;-66
2022/10/12 06:46:01;;;;;;;18.97;17.37;;;15.20;49.80;;;;;;5026233;28;20177;-65
2022/10/12 06:48:26;;;;;;;20.97;19.27;;;15.20;49.80;;;;;;5034673;28;20671;-65
2022/10/12 06:50:52;;;;;;;20.30;18.50;;;15.30;49.90;;;;;;5045950;28;20419;-65
2022/10/12 06:53:18;;;;;;;20.97;18.80;;;15.30;50.00;;;;;;5045712;28;20453;-65
2022/10/12 06:55:44;;;;;;;30.30;19.10;;;15.30;49.70;;;;;;5047052;28;20172;-66
2022/10/12 06:58:10;;;;;;;22.73;20.40;;;15.10;49.80;;;;;;5044964;28;20785;-65
2022/10/12 07:00:36;;;;;;;20.77;18.90;;;15.10;50.30;;;;;;5050305;28;20450;-65
2022/10/12 07:03:01;;;;;;;25.50;19.40;;;15.00;50.50;;;;;;5047559;28;20176;-65
2022/10/12 07:05:27;;;;;;;20.10;18.33;;;15.00;51.00;;;;;;5046061;28;20450;-65
2022/10/12 07:07:53;;;;;;;20.93;19.03;;;15.00;51.20;;;;;;5053937;28;20172;-65
2022/10/12 07:10:18;;;;;;;21.27;19.20;;;15.10;51.20;;;;;;5051652;28;20402;-64
2022/10/12 07:12:44;;;;;;;22.30;20.00;;;15.20;51.20;;;;;;5053259;28;20180;-64
2022/10/12 07:15:10;;;;;;;21.27;18.20;;;15.20;50.90;;;;;;5053752;28;20183;-65
2022/10/12 07:17:36;;;;;;;20.50;18.80;;;15.20;50.40;;;;;;5053700;28;20187;-65
2022/10/12 07:20:01;;;;;;;20.97;18.90;;;15.10;50.40;;;;;;5053039;28;20183;-65
2022/10/12 07:22:27;;;;;;;20.90;19.10;;;15.10;50.40;;;;;;5053773;28;20593;-66
2022/10/12 07:24:53;;;;;;;21.53;19.63;;;15.10;51.20;;;;;;5053678;28;20226;-65
2022/10/12 07:27:18;;;;;;;22.13;19.40;;;15.20;51.30;;;;;;5053745;28;20687;-65
2022/10/12 07:29:44;;;;;;;21.73;19.73;;;15.20;51.20;;;;;;5053494;28;20168;-65
2022/10/12 07:32:09;;;;;;;20.80;18.70;;;15.10;50.90;;;;;;5053023;28;20214;-65
2022/10/12 07:34:35;;;;;;;22.57;20.17;;;15.00;51.30;;;;;;5053523;28;20275;-65
2022/10/12 07:37:01;;;;;;;21.43;19.17;;;15.00;51.40;;;;;;5038387;28;20192;-65
2022/10/12 07:39:27;;;;;;;25.83;20.80;;;15.00;51.90;;;;;;5054861;28;20203;-65
2022/10/12 07:41:53;;;;;;;21.23;19.33;;;15.10;51.80;;;;;;5052282;28;20454;-66
2022/10/12 07:44:19;;;;;;;20.83;19.10;;;15.10;51.60;;;;;;5053562;28;20590;-66
2022/10/12 07:46:45;;;;;;;21.63;19.40;;;15.00;51.50;;;;;;5053223;28;20407;-65
2022/10/12 07:49:12;;;;;;;22.17;20.07;;;15.00;52.20;;;;;;5053523;28;20468;-65
2022/10/12 07:51:38;;;;;;;25.23;20.10;;;14.90;52.30;;;;;;5052636;28;20172;-65
2022/10/12 07:54:04;;;;;;;23.13;21.00;;;15.00;52.20;;;;;;5053659;28;20425;-65
2022/10/12 07:56:30;;;;;;;21.87;19.97;;;14.90;52.10;;;;;;5053387;28;20422;-66
2022/10/12 07:58:56;;;;;;;25.80;20.30;;;14.90;52.30;;;;;;5053360;28;20172;-65
2022/10/12 08:01:26;;;;;;;24.30;21.90;;;14.90;52.60;;;;;;5052497;28;20211;-65
2022/10/12 08:03:53;;;;;;;22.90;20.70;;;15.00;52.50;;;;;;5052809;28;20411;-65
2022/10/12 08:06:21;;;;;;;22.77;20.50;;;15.00;52.30;;;;;;5039618;28;20832;-66
2022/10/12 08:08:47;;;;;;;23.77;21.37;;;15.00;52.40;;;;;;5049585;28;20420;-66
2022/10/12 08:11:14;;;;;;;24.23;20.97;;;15.00;52.80;;;;;;5048243;28;20446;-66
2022/10/12 08:13:40;;;;;;;22.83;20.43;;;15.10;52.40;;;;;;5049411;28;20557;-66
2022/10/12 08:16:09;;;;;;;22.87;20.60;;;15.10;52.00;;;;;;5049431;28;20423;-66
2022/10/12 08:18:35;;;;;;;22.50;20.27;;;15.10;52.00;;;;;;5049104;28;20417;-66
2022/10/12 08:21:05;;;;;;;23.47;20.20;;;15.10;52.00;;;;;;5048680;28;20459;-65
2022/10/12 08:23:31;;;;;;;22.50;20.27;;;15.10;52.10;;;;;;5049219;28;20660;-65
2022/10/12 08:25:57;;;;;;;30.77;21.03;;;15.20;51.70;;;;;;5049158;28;20415;-65
2022/10/12 08:28:23;;;;;;;23.57;19.53;;;15.20;51.50;;;;;;5049094;28;20665;-65
2022/10/12 08:30:50;;;;;;;20.97;19.17;;;15.30;51.50;;;;;;5048523;28;20959;-65
2022/10/12 08:33:17;;;;;;;21.80;19.87;;;15.30;51.20;;;;;;5048970;28;20469;-65
2022/10/12 08:35:43;;;;;;;24.30;20.03;;;15.40;51.30;;;;;;5048865;28;20506;-65
2022/10/12 08:38:10;;;;;;;23.57;21.17;;;15.50;51.00;;;;;;5048984;28;20432;-65
2022/10/12 08:40:51;;;;;;;23.23;20.80;;;15.50;51.00;;;;;;5031562;28;20447;-65
2022/10/12 08:43:25;;;;;;;22.03;19.93;;;15.50;50.40;;;;;;5049069;28;20412;-65
2022/10/12 08:46:00;;;;;;;21.47;19.40;;;15.50;50.20;;;;;;5034050;28;20411;-65
2022/10/12 08:48:42;;;;;;;23.07;20.83;;;15.50;50.10;;;;;;5052162;28;20464;-65
2022/10/12 08:51:13;;;;;;;24.73;22.20;;;15.60;50.00;;;;;;5051542;28;20773;-65
2022/10/12 08:53:54;;;;;;;23.43;19.60;;;15.60;49.50;;;;;;5052038;28;20421;-65
2022/10/12 08:56:21;;;;;;;20.10;18.40;;;15.60;49.70;;;;;;5053338;28;20413;-66
2022/10/12 08:58:48;;;;;;;23.03;18.60;;;15.60;49.10;;;;;;5051811;28;20416;-65
2022/10/12 09:01:17;;;;;;;23.50;20.23;;;15.60;49.10;;;;;;5051356;28;21012;-65
2022/10/12 09:04:04;;;;;;;21.23;19.30;;;15.50;49.20;;;;;;5051250;28;20410;-65
2022/10/12 09:06:36;;;;;;;20.40;18.50;;;15.50;49.20;;;;;;5051789;28;20509;-65
2022/10/12 09:09:34;;;;;;;21.33;19.27;;;15.60;49.20;;;;;;5051736;28;20844;-65
2022/10/12 09:12:17;;;;;;;22.03;19.73;;;15.60;48.90;;;;;;5026331;28;20414;-64
2022/10/12 09:14:45;;;;;;;21.17;18.93;;;15.60;49.00;;;;;;5051242;28;20444;-65
2022/10/12 09:17:47;;;;;;;19.97;17.87;;;15.60;49.00;;;;;;5051667;28;20505;-65
2022/10/12 09:20:20;;;;;;;19.20;17.30;;;15.70;48.20;;;;;;5047702;28;20466;-65
2022/10/12 09:22:52;;;;;;;20.00;18.10;;;15.70;46.70;;;;;;5050269;28;20417;-65
2022/10/12 09:25:23;;;;;;;19.57;17.70;;;15.70;46.60;;;;;;5051403;28;20415;-65
2022/10/12 09:27:48;;;;;;;20.00;18.10;;;15.70;46.60;;;;;;5051512;28;20415;-65
2022/10/12 09:30:16;;;;;;;19.97;17.87;;;15.70;46.60;;;;;;5050726;28;20775;-65
2022/10/12 09:33:16;;;;;;;19.57;17.73;;;15.70;46.60;;;;;;5051130;28;20604;-65
2022/10/12 09:35:44;;;;;;;22.97;20.67;;;15.70;46.60;;;;;;5051135;28;20779;-65
2022/10/12 09:38:10;;;;;;;24.60;22.07;;;15.60;46.50;;;;;;5051356;28;20754;-65
2022/10/12 09:40:36;;;;;;;23.70;21.67;;;15.60;46.50;;;;;;5050200;28;20493;-65
2022/10/12 09:43:02;;;;;;;23.57;21.47;;;15.60;46.20;;;;;;5051287;28;20954;-65
2022/10/12 09:45:32;;;;;;;23.63;21.73;;;15.60;46.10;;;;;;5051029;28;20407;-65
2022/10/12 09:48:10;;;;;;;21.30;19.70;;;15.60;45.70;;;;;;5050866;28;20421;-65
2022/10/12 09:51:00;;;;;;;18.93;17.13;;;15.70;45.00;;;;;;5050252;28;20831;-66
2022/10/12 09:54:02;;;;;;;19.10;17.27;;;15.70;45.60;;;;;;5050991;28;20411;-65
2022/10/12 09:56:45;;;;;;;21.43;19.40;;;15.70;45.70;;;;;;5049252;28;20891;-65
2022/10/12 09:59:23;;;;;;;18.43;16.33;;;15.70;45.20;;;;;;5050856;28;20798;-65
2022/10/12 10:02:12;;;;;;;18.80;17.10;;;15.70;44.90;;;;;;5050039;28;20519;-65
2022/10/12 10:04:40;;;;;;;21.90;19.80;;;15.70;45.20;;;;;;5050597;28;20422;-65
2022/10/12 10:07:26;;;;;;;21.63;16.90;;;15.70;45.60;;;;;;5050654;28;20418;-65
2022/10/12 10:10:11;;;;;;;17.73;16.27;;;15.70;45.60;;;;;;5050049;28;20414;-65
2022/10/12 10:12:47;;;;;;;16.97;15.57;;;15.70;45.30;;;;;;5050227;28;20773;-65
2022/10/12 10:15:32;;;;;;;18.87;17.03;;;15.70;45.30;;;;;;5050723;28;20421;-65
2022/10/12 10:18:01;;;;;;;18.00;16.30;;;15.80;45.40;;;;;;5050463;28;20766;-66
2022/10/12 10:20:48;;;;;;;17.07;15.40;;;15.80;45.00;;;;;;5049825;28;20497;-66
2022/10/12 10:23:50;;;;;;;17.63;15.83;;;15.80;45.00;;;;;;5050436;28;20410;-65
2022/10/12 10:26:18;;;;;;;18.10;16.30;;;15.90;45.00;;;;;;5050488;28;20414;-60
2022/10/12 10:28:46;;;;;;;17.73;16.00;;;15.90;44.60;;;;;;5050084;28;20414;-60
2022/10/12 10:31:12;;;;;;;17.70;16.00;;;15.90;44.40;;;;;;5049901;28;20422;-60
2022/10/12 10:33:38;;;;;;;17.80;15.93;;;15.90;44.50;;;;;;5049775;28;20437;-59
2022/10/12 10:36:18;;;;;;;16.57;15.03;;;16.00;44.50;;;;;;5050347;28;20176;-59
2022/10/12 10:39:01;;;;;;;17.00;15.50;;;15.90;44.50;;;;;;5050244;28;21022;-59
2022/10/12 10:41:36;;;;;;;16.60;15.10;;;16.00;44.40;;;;;;5049827;28;20527;-60
2022/10/12 10:44:02;;;;;;;19.97;16.10;;;16.00;44.50;;;;;;5050434;28;20410;-59
2022/10/12 10:46:31;;;;;;;15.17;13.97;;;16.10;43.80;;;;;;5050156;28;20476;-59
2022/10/12 10:49:05;;;;;;;16.17;14.53;;;16.10;44.00;;;;;;5050238;28;20445;-60
2022/10/12 10:51:45;;;;;;;17.73;16.20;;;16.10;43.70;;;;;;5049727;28;20423;-66
2022/10/12 10:54:22;;;;;;;18.63;16.90;;;16.10;43.70;;;;;;5050143;28;20513;-65
2022/10/12 10:57:20;;;;;;;15.80;14.60;;;16.00;42.80;;;;;;5050017;28;20450;-65
2022/10/12 10:59:46;;;;;;;18.37;16.77;;;16.00;43.10;;;;;;5049305;28;20418;-65
2022/10/12 11:02:32;;;;;;;19.63;16.50;;;16.10;42.70;;;;;;5049475;28;20458;-65
2022/10/12 11:05:09;;;;;;;16.53;15.33;;;16.20;43.10;;;;;;5050041;28;20182;-65
2022/10/12 11:07:55;;;;;;;15.80;14.20;;;16.20;43.00;;;;;;5050074;28;20509;-65
2022/10/12 11:10:23;;;;;;;18.90;17.10;;;16.30;42.90;;;;;;5049149;28;20430;-65
2022/10/12 11:12:55;;;;;;;16.87;15.60;;;16.30;43.10;;;;;;5049687;28;21033;-64
2022/10/12 11:15:57;;;;;;;16.27;15.13;;;16.30;42.50;;;;;;5044486;28;20439;-65
2022/10/12 11:18:25;;;;;;;18.17;16.43;;;16.40;42.60;;;;;;4998913;28;20423;-65
2022/10/12 11:20:56;;;;;;;15.87;14.63;;;16.30;42.20;;;;;;5029112;28;20471;-65
2022/10/12 11:23:36;;;;;;;17.27;15.67;;;16.30;42.00;;;;;;5030138;28;20422;-65
2022/10/12 11:26:36;;;;;;;17.77;16.17;;;16.20;42.30;;;;;;5029989;28;20426;-65
2022/10/12 11:29:03;;;;;;;16.63;15.43;;;16.20;42.20;;;;;;5018997;28;20451;-65
2022/10/12 11:31:38;;;;;;;19.03;17.13;;;16.30;42.00;;;;;;5029304;28;20423;-65
2022/10/12 11:34:07;;;;;;;16.40;15.20;;;16.30;42.10;;;;;;5030143;28;20439;-65
2022/10/12 11:36:38;;;;;;;16.80;14.77;;;16.30;42.00;;;;;;5029920;28;20465;-65
2022/10/12 11:39:07;;;;;;;17.27;15.83;;;16.20;42.00;;;;;;5029852;28;20534;-65
2022/10/12 11:41:44;;;;;;;18.13;16.53;;;16.30;41.90;;;;;;5029090;28;20826;-65
2022/10/12 11:44:37;;;;;;;16.73;15.30;;;16.40;42.00;;;;;;5029929;28;20422;-65
2022/10/12 11:47:24;;;;;;;24.03;16.07;;;16.40;41.40;;;;;;5032052;28;20415;-65
2022/10/12 11:50:28;;;;;;;18.03;16.13;;;16.50;41.20;;;;;;5033107;28;20546;-65
2022/10/12 11:52:56;;;;;;;18.00;16.60;;;16.50;40.60;;;;;;5032071;28;20411;-65
2022/10/12 11:55:28;;;;;;;18.07;16.27;;;16.50;40.90;;;;;;5033515;28;20427;-66
2022/10/12 11:57:57;;;;;;;18.33;16.90;;;16.50;40.90;;;;;;5033458;28;20423;-66
2022/10/12 12:00:37;;;;;;;16.77;15.30;;;16.60;40.80;;;;;;5032710;28;20553;-65
2022/10/12 12:03:19;;;;;;;16.73;15.00;;;16.60;40.40;;;;;;5033579;28;20407;-66
2022/10/12 12:05:45;;;;;;;17.53;16.23;;;16.60;40.10;;;;;;5033670;28;20419;-66
2022/10/12 12:08:39;;;;;;;18.43;16.93;;;16.50;40.30;;;;;;5033473;28;20419;-65
2022/10/12 12:11:21;;;;;;;16.70;15.20;;;16.60;40.60;;;;;;5032003;28;20177;-65
2022/10/12 12:13:47;;;;;;;17.33;15.77;;;16.60;40.30;;;;;;5033267;28;20514;-65
2022/10/12 12:16:12;;;;;;;17.00;15.90;;;16.60;40.30;;;;;;5036409;28;20545;-65
2022/10/12 12:19:12;;;;;;;18.50;16.73;;;16.60;40.20;;;;;;5052923;28;20184;-65
2022/10/12 12:22:16;;;;;;;19.33;16.13;;;16.50;40.60;;;;;;5051613;28;20237;-65
2022/10/12 12:25:12;;;;;;;16.30;15.20;;;16.60;41.30;;;;;;5012228;28;20796;-65
2022/10/12 12:27:54;;;;;;;17.57;16.00;;;16.60;40.60;;;;;;5052594;28;20415;-65
2022/10/12 12:30:38;;;;;;;16.40;15.10;;;16.60;40.80;;;;;;5052174;28;20454;-65
2022/10/12 12:33:18;;;;;;;16.97;15.63;;;16.60;40.60;;;;;;5052700;28;20414;-65
2022/10/12 12:35:59;;;;;;;16.53;15.13;;;16.60;40.30;;;;;;5052098;28;20429;-65
2022/10/12 12:38:32;;;;;;;15.60;14.40;;;16.60;40.50;;;;;;5052480;28;20484;-66
2022/10/12 12:41:00;;;;;;;13.97;13.07;;;16.70;40.00;;;;;;5051824;28;20500;-65
2022/10/12 12:43:28;;;;;;;14.20;13.20;;;16.70;39.80;;;;;;5052401;28;20525;-65
2022/10/12 12:46:08;;;;;;;16.77;15.17;;;16.70;39.60;;;;;;5052376;28;20513;-66
2022/10/12 12:48:40;;;;;;;14.23;13.23;;;16.80;39.60;;;;;;5052429;28;20771;-65